Time;durP1;ratioP1;P1;durP2;ratioP2;P2;SDS_P1;SDS_P2;PMS_P1;PMS_P2;Temp;Humidity;BMP_temperature;BMP_pressure;BME280_temperature;BME280_humidity;BME280_pressure;Samples;Min_cycle;Max_cycle;Signal;HPM_P1;HPM_P2
2022/10/27 00:02:22;;;;;;;17.52;9.27;;;;;;;;;;5032984;28;20103;-43
2022/10/27 00:04:47;;;;;;;17.77;9.60;;;;;;;;;;5033058;28;20087;-43
2022/10/27 00:07:12;;;;;;;16.40;9.27;;;;;;;;;;5033107;28;20384;-43
2022/10/27 00:09:37;;;;;;;13.75;8.73;;;;;;;;;;5032275;28;20246;-43
2022/10/27 00:12:03;;;;;;;16.52;9.43;;;;;;;;;;5032569;28;20021;-43
2022/10/27 00:14:28;;;;;;;15.50;9.55;;;;;;;;;;5032938;28;20036;-43
2022/10/27 00:16:54;;;;;;;14.47;9.10;;;;;;;;;;5032620;28;20029;-43
2022/10/27 00:19:23;;;;;;;17.00;9.32;;;;;;;;;;5032791;28;20322;-43
2022/10/27 00:21:50;;;;;;;;;;;;;;;;;;5033079;28;20025;-43
2022/10/27 00:24:15;;;;;;;18.83;10.68;;;;;;;;;;5031250;28;19952;-43
2022/10/27 00:26:41;;;;;;;20.48;11.13;;;;;;;;;;5032479;28;20039;-43
2022/10/27 00:29:06;;;;;;;20.70;10.15;;;;;;;;;;5032771;28;20028;-43
2022/10/27 00:31:31;;;;;;;19.57;10.27;;;;;;;;;;5032454;28;20460;-43
2022/10/27 00:33:56;;;;;;;20.23;10.07;;;;;;;;;;5032731;28;20259;-43
2022/10/27 00:36:22;;;;;;;18.93;10.23;;;;;;;;;;5032847;28;20108;-43
2022/10/27 00:38:48;;;;;;;19.92;10.68;;;;;;;;;;5032251;28;20250;-42
2022/10/27 00:41:33;;;;;;;16.52;9.55;;;;;;;;;;5032351;28;20017;-43
2022/10/27 00:44:00;;;;;;;19.77;10.73;;;;;;;;;;5032801;28;20048;-43
2022/10/27 00:46:34;;;;;;;19.92;11.85;;;;;;;;;;5032327;28;20053;-43
2022/10/27 00:49:03;;;;;;;21.17;11.35;;;;;;;;;;5031075;28;20033;-43
2022/10/27 00:51:29;;;;;;;20.17;11.13;;;;;;;;;;5032313;28;20408;-42
2022/10/27 00:53:54;;;;;;;19.58;11.13;;;;;;;;;;5032668;28;20099;-43
2022/10/27 00:56:19;;;;;;;18.27;10.93;;;;;;;;;;5032580;28;20026;-44
2022/10/27 00:58:45;;;;;;;20.90;10.48;;;;;;;;;;5032407;28;20028;-43
2022/10/27 01:01:11;;;;;;;20.65;11.57;;;;;;;;;;5032314;28;20036;-41
2022/10/27 01:03:37;;;;;;;17.95;10.63;;;;;;;;;;5032358;28;20447;-43
2022/10/27 01:06:02;;;;;;;19.15;10.82;;;;;;;;;;5032132;28;20043;-43
2022/10/27 01:08:28;;;;;;;21.17;11.13;;;;;;;;;;5032372;28;20096;-43
2022/10/27 01:10:53;;;;;;;20.67;11.18;;;;;;;;;;5031072;28;20017;-44
2022/10/27 01:13:19;;;;;;;19.42;11.63;;;;;;;;;;5032467;28;20018;-42
2022/10/27 01:15:50;;;;;;;20.00;12.00;;;;;;;;;;5032308;28;20022;-43
2022/10/27 01:18:15;;;;;;;22.05;12.60;;;;;;;;;;5032109;28;20088;-43
2022/10/27 01:21:19;;;;;;;24.90;11.80;;;;;;;;;;5033357;28;20021;-43
2022/10/27 01:23:59;;;;;;;19.30;11.65;;;;;;;;;;5033652;28;20450;-43
2022/10/27 01:26:24;;;;;;;;;;;;;;;;;;5033812;28;20037;-42
2022/10/27 01:28:58;;;;;;;18.75;11.38;;;;;;;;;;5034301;28;19999;-43
2022/10/27 01:31:30;;;;;;;18.05;11.07;;;;;;;;;;5035636;28;20029;-43
2022/10/27 01:34:00;;;;;;;20.95;11.32;;;;;;;;;;5035941;28;20465;-43
2022/10/27 01:36:29;;;;;;;19.73;12.07;;;;;;;;;;5035445;28;20056;-43
2022/10/27 01:39:01;;;;;;;20.73;12.65;;;;;;;;;;5035298;28;20021;-42
2022/10/27 01:41:32;;;;;;;24.40;11.68;;;;;;;;;;5035205;28;20480;-43
2022/10/27 01:44:00;;;;;;;20.15;12.52;;;;;;;;;;5035372;28;20037;-43
2022/10/27 01:46:26;;;;;;;22.38;11.52;;;;;;;;;;5035439;28;20049;-43
2022/10/27 01:48:51;;;;;;;31.23;12.23;;;;;;;;;;5035198;28;20032;-43
2022/10/27 01:51:16;;;;;;;24.88;12.25;;;;;;;;;;5035368;28;20112;-43
2022/10/27 01:53:46;;;;;;;22.83;11.73;;;;;;;;;;5035167;28;20083;-43
2022/10/27 01:56:29;;;;;;;21.13;11.80;;;;;;;;;;5034960;28;20029;-43
2022/10/27 01:59:00;;;;;;;19.80;11.43;;;;;;;;;;5035085;28;20461;-43
2022/10/27 02:01:37;;;;;;;23.98;11.70;;;;;;;;;;5035026;28;20464;-43
2022/10/27 02:04:18;;;;;;;19.92;11.30;;;;;;;;;;5033859;28;20048;-43
2022/10/27 02:06:52;;;;;;;18.88;11.40;;;;;;;;;;5034951;28;20041;-43
2022/10/27 02:09:22;;;;;;;20.42;11.10;;;;;;;;;;5034945;28;20393;-42
2022/10/27 02:11:50;;;;;;;16.23;10.95;;;;;;;;;;5034911;28;20483;-42
2022/10/27 02:14:16;;;;;;;17.05;10.45;;;;;;;;;;5034885;28;20022;-43
2022/10/27 02:16:43;;;;;;;18.30;9.80;;;;;;;;;;5034608;28;20025;-43
2022/10/27 02:19:16;;;;;;;17.05;11.05;;;;;;;;;;5034679;28;20025;-42
2022/10/27 02:21:42;;;;;;;19.58;10.95;;;;;;;;;;5034651;28;20033;-43
2022/10/27 02:24:07;;;;;;;16.52;10.25;;;;;;;;;;5034614;28;20026;-42
2022/10/27 02:26:41;;;;;;;21.27;11.40;;;;;;;;;;5034324;28;20040;-40
2022/10/27 02:29:08;;;;;;;17.42;10.57;;;;;;;;;;5034381;28;20460;-42
2022/10/27 02:31:36;;;;;;;13.80;9.38;;;;;;;;;;5033981;28;20021;-42
2022/10/27 02:34:01;;;;;;;15.85;9.40;;;;;;;;;;5034434;28;20017;-42
2022/10/27 02:36:26;;;;;;;15.45;9.43;;;;;;;;;;5034346;28;20028;-43
2022/10/27 02:38:52;;;;;;;17.23;9.77;;;;;;;;;;5034209;28;20115;-44
2022/10/27 02:41:17;;;;;;;18.00;9.57;;;;;;;;;;5034245;28;20025;-43
2022/10/27 02:43:42;;;;;;;14.85;10.30;;;;;;;;;;5033853;28;20301;-43
2022/10/27 02:46:07;;;;;;;19.47;10.40;;;;;;;;;;5033718;28;20049;-43
2022/10/27 02:48:33;;;;;;;21.48;10.18;;;;;;;;;;5034069;28;20251;-43
2022/10/27 02:50:58;;;;;;;22.63;10.60;;;;;;;;;;5034133;28;20027;-43
2022/10/27 02:53:23;;;;;;;17.80;9.63;;;;;;;;;;5033978;28;20239;-44
2022/10/27 02:55:49;;;;;;;18.95;10.57;;;;;;;;;;5033829;28;20021;-43
2022/10/27 02:58:14;;;;;;;20.92;10.60;;;;;;;;;;5033817;28;20519;-43
2022/10/27 03:00:39;;;;;;;20.33;11.40;;;;;;;;;;5033677;28;20024;-44
2022/10/27 03:03:04;;;;;;;18.80;10.82;;;;;;;;;;5033949;28;20235;-44
2022/10/27 03:05:30;;;;;;;24.17;12.27;;;;;;;;;;5033704;28;20136;-44
2022/10/27 03:07:55;;;;;;;20.35;11.05;;;;;;;;;;5033531;28;20517;-44
2022/10/27 03:10:20;;;;;;;20.17;11.88;;;;;;;;;;5033917;28;20026;-44
2022/10/27 03:12:47;;;;;;;22.30;11.10;;;;;;;;;;5033593;28;20022;-43
2022/10/27 03:15:12;;;;;;;19.15;12.57;;;;;;;;;;5033442;28;20737;-43
2022/10/27 03:17:42;;;;;;;19.05;11.63;;;;;;;;;;5033542;28;20018;-43
2022/10/27 03:20:07;;;;;;;24.23;12.35;;;;;;;;;;5033568;28;20160;-43
2022/10/27 03:22:35;;;;;;;22.05;12.02;;;;;;;;;;5033504;28;20471;-42
2022/10/27 03:25:00;;;;;;;33.50;11.88;;;;;;;;;;5033310;28;20038;-43
2022/10/27 03:27:26;;;;;;;21.17;11.85;;;;;;;;;;5032217;28;20087;-42
2022/10/27 03:29:51;;;;;;;23.93;11.80;;;;;;;;;;5033156;28;20028;-44
2022/10/27 03:32:16;;;;;;;19.67;11.93;;;;;;;;;;5032183;28;20602;-44
2022/10/27 03:34:41;;;;;;;19.53;11.47;;;;;;;;;;5033769;28;20304;-45
2022/10/27 03:37:06;;;;;;;19.00;11.67;;;;;;;;;;5033072;28;20257;-44
2022/10/27 03:39:32;;;;;;;27.50;14.30;;;;;;;;;;5033388;28;20270;-43
2022/10/27 03:41:57;;;;;;;39.13;15.10;;;;;;;;;;5032901;28;20247;-43
2022/10/27 03:44:22;;;;;;;30.70;14.40;;;;;;;;;;5032486;28;20250;-44
2022/10/27 03:46:47;;;;;;;30.40;13.57;;;;;;;;;;5031399;28;20849;-44
2022/10/27 03:49:13;;;;;;;34.93;14.93;;;;;;;;;;5033011;28;20325;-43
2022/10/27 03:51:38;;;;;;;35.85;16.67;;;;;;;;;;5032913;28;20238;-43
2022/10/27 03:54:03;;;;;;;26.87;15.77;;;;;;;;;;5032863;28;20022;-37
2022/10/27 03:56:28;;;;;;;25.17;14.88;;;;;;;;;;5032776;28;20741;-46
2022/10/27 03:58:54;;;;;;;23.23;14.37;;;;;;;;;;5031439;28;20021;-45
2022/10/27 04:01:19;;;;;;;32.23;16.93;;;;;;;;;;5032945;28;20246;-44
2022/10/27 04:03:46;;;;;;;37.25;18.63;;;;;;;;;;5032863;28;20243;-45
2022/10/27 04:06:11;;;;;;;35.28;18.30;;;;;;;;;;5032865;28;20033;-43
2022/10/27 04:08:36;;;;;;;33.57;19.07;;;;;;;;;;5032652;28;20029;-43
2022/10/27 04:11:01;;;;;;;39.37;20.70;;;;;;;;;;5032599;28;20247;-43
2022/10/27 04:13:27;;;;;;;38.23;20.07;;;;;;;;;;5032791;28;20253;-43
2022/10/27 04:15:52;;;;;;;42.80;21.33;;;;;;;;;;5032491;28;20281;-43
2022/10/27 04:18:17;;;;;;;38.53;21.27;;;;;;;;;;5032851;28;20103;-42
2022/10/27 04:20:42;;;;;;;41.13;21.97;;;;;;;;;;5032800;28;20246;-43
2022/10/27 04:23:08;;;;;;;42.80;22.37;;;;;;;;;;5032653;28;20289;-43
2022/10/27 04:25:33;;;;;;;38.63;20.93;;;;;;;;;;5032625;28;20770;-42
2022/10/27 04:28:06;;;;;;;38.70;21.13;;;;;;;;;;5032438;28;20637;-43
2022/10/27 04:30:31;;;;;;;50.67;23.60;;;;;;;;;;5032315;28;20022;-43
2022/10/27 04:32:56;;;;;;;49.20;23.88;;;;;;;;;;5032580;28;20088;-43
2022/10/27 04:35:22;;;;;;;49.47;24.38;;;;;;;;;;5032584;28;20026;-44
2022/10/27 04:37:47;;;;;;;54.47;24.77;;;;;;;;;;5032561;28;20022;-42
2022/10/27 04:40:12;;;;;;;55.35;25.25;;;;;;;;;;5031205;28;20262;-43
2022/10/27 04:42:42;;;;;;;47.20;22.88;;;;;;;;;;5032293;28;20104;-42
2022/10/27 04:45:08;;;;;;;48.70;24.25;;;;;;;;;;5031098;28;20522;-44
2022/10/27 04:47:33;;;;;;;53.10;25.58;;;;;;;;;;5032408;28;20060;-43
2022/10/27 04:49:58;;;;;;;55.43;24.77;;;;;;;;;;5032436;28;20089;-44
2022/10/27 04:52:23;;;;;;;51.77;24.97;;;;;;;;;;5032403;28;20741;-45
2022/10/27 04:54:49;;;;;;;59.45;24.95;;;;;;;;;;5033902;28;20709;-43
2022/10/27 04:57:14;;;;;;;56.37;24.47;;;;;;;;;;5036033;28;20013;-42
2022/10/27 04:59:39;;;;;;;62.47;27.00;;;;;;;;;;5035966;28;20250;-42
2022/10/27 05:02:04;;;;;;;63.23;25.60;;;;;;;;;;5034851;28;20330;-42
2022/10/27 05:04:30;;;;;;;57.73;26.97;;;;;;;;;;5035741;28;20235;-43
2022/10/27 05:06:55;;;;;;;76.50;28.70;;;;;;;;;;5035884;28;20618;-43
2022/10/27 05:09:20;;;;;;;66.53;27.23;;;;;;;;;;5035850;28;20301;-42
2022/10/27 05:11:45;;;;;;;70.97;27.67;;;;;;;;;;5035741;28;20393;-44
2022/10/27 05:14:10;;;;;;;71.45;28.90;;;;;;;;;;5035943;28;20254;-41
2022/10/27 05:16:36;;;;;;;73.77;29.33;;;;;;;;;;5035931;28;20048;-43
2022/10/27 05:19:01;;;;;;;63.70;26.53;;;;;;;;;;5035794;28;20250;-42
2022/10/27 05:21:26;;;;;;;71.55;29.30;;;;;;;;;;5035629;28;20246;-42
2022/10/27 05:23:51;;;;;;;75.73;30.60;;;;;;;;;;5035960;28;20057;-43
2022/10/27 05:26:17;;;;;;;66.87;27.13;;;;;;;;;;5034320;28;20642;-44
2022/10/27 05:28:43;;;;;;;68.23;30.27;;;;;;;;;;5035340;28;20243;-44
2022/10/27 05:31:08;;;;;;;70.75;28.60;;;;;;;;;;5035515;28;20282;-43
2022/10/27 05:33:34;;;;;;;68.28;26.65;;;;;;;;;;5035730;28;20095;-44
2022/10/27 05:35:59;;;;;;;72.73;29.00;;;;;;;;;;5035413;28;20025;-44
2022/10/27 05:38:24;;;;;;;66.73;28.87;;;;;;;;;;5035191;28;20719;-43
2022/10/27 05:40:56;;;;;;;57.20;26.97;;;;;;;;;;5034872;28;20317;-45
2022/10/27 05:43:21;;;;;;;70.03;27.60;;;;;;;;;;5034665;28;20269;-44
2022/10/27 05:45:46;;;;;;;53.58;22.63;;;;;;;;;;5042680;28;20112;-47
2022/10/27 05:48:12;;;;;;;71.17;30.07;;;;;;;;;;5041636;28;20022;-44
2022/10/27 05:50:37;;;;;;;54.63;27.15;;;;;;;;;;5035629;28;20259;-44
2022/10/27 05:53:02;;;;;;;64.72;28.80;;;;;;;;;;5062050;28;20012;-40
2022/10/27 05:55:28;;;;;;;68.80;28.48;;;;;;;;;;5033639;28;20033;-44
2022/10/27 05:58:01;;;;;;;64.75;28.48;;;;;;;;;;5037389;28;20414;-46
2022/10/27 06:00:29;;;;;;;50.05;24.40;;;;;;;;;;5038164;28;20070;-44
2022/10/27 06:02:58;;;;;;;48.55;23.08;;;;;;;;;;5033285;28;20021;-44
2022/10/27 06:05:26;;;;;;;49.05;22.63;;;;;;;;;;5040748;28;20037;-43
2022/10/27 06:07:52;;;;;;;55.15;23.52;;;;;;;;;;5042949;28;20025;-43
2022/10/27 06:10:17;;;;;;;43.45;22.10;;;;;;;;;;5045664;28;20017;-45
2022/10/27 06:12:42;;;;;;;48.40;23.65;;;;;;;;;;5036306;28;20107;-45
2022/10/27 06:15:08;;;;;;;46.03;23.23;;;;;;;;;;5039670;28;20025;-44
2022/10/27 06:17:33;;;;;;;36.53;20.65;;;;;;;;;;5046391;28;20025;-43
2022/10/27 06:19:59;;;;;;;39.33;21.60;;;;;;;;;;5039313;28;20017;-44
2022/10/27 06:22:24;;;;;;;34.88;20.85;;;;;;;;;;5038713;28;20013;-43
2022/10/27 06:24:49;;;;;;;33.03;19.85;;;;;;;;;;5035475;28;20029;-44
2022/10/27 06:27:15;;;;;;;35.47;22.25;;;;;;;;;;5037331;28;20083;-44
2022/10/27 06:29:40;;;;;;;40.92;22.27;;;;;;;;;;5035048;28;20024;-43
2022/10/27 06:32:05;;;;;;;34.95;20.67;;;;;;;;;;5041952;28;20071;-44
2022/10/27 06:34:30;;;;;;;39.50;21.75;;;;;;;;;;5036873;28;20104;-43
2022/10/27 06:36:56;;;;;;;40.17;22.02;;;;;;;;;;5039672;28;20092;-44
2022/10/27 06:39:21;;;;;;;39.65;21.95;;;;;;;;;;5033075;28;20093;-44
2022/10/27 06:41:46;;;;;;;38.75;22.45;;;;;;;;;;5040639;28;20021;-45
2022/10/27 06:44:12;;;;;;;39.65;22.98;;;;;;;;;;5038797;28;20025;-45
2022/10/27 06:46:38;;;;;;;39.08;21.67;;;;;;;;;;5032285;28;20053;-45
2022/10/27 06:49:04;;;;;;;37.03;20.85;;;;;;;;;;5034026;28;20560;-45
2022/10/27 06:51:30;;;;;;;44.42;23.85;;;;;;;;;;5039406;28;20037;-46
2022/10/27 06:53:55;;;;;;;40.00;22.23;;;;;;;;;;5050667;28;20360;-45
2022/10/27 06:56:21;;;;;;;38.30;21.42;;;;;;;;;;5043379;28;20131;-45
2022/10/27 06:58:46;;;;;;;35.95;22.50;;;;;;;;;;5032312;28;20100;-49
2022/10/27 07:01:12;;;;;;;33.88;19.77;;;;;;;;;;5032121;28;20173;-45
2022/10/27 07:03:37;;;;;;;34.53;21.05;;;;;;;;;;5033920;28;20029;-46
2022/10/27 07:06:03;;;;;;;34.45;20.50;;;;;;;;;;5038533;28;20445;-45
2022/10/27 07:08:28;;;;;;;32.03;19.75;;;;;;;;;;5030371;28;20025;-45
2022/10/27 07:10:53;;;;;;;36.20;20.77;;;;;;;;;;5040307;28;20071;-45
2022/10/27 07:13:19;;;;;;;36.65;21.15;;;;;;;;;;5039496;28;20087;-45
2022/10/27 07:15:44;;;;;;;32.97;19.00;;;;;;;;;;5040155;28;20460;-45
2022/10/27 07:18:09;;;;;;;31.95;18.13;;;;;;;;;;5046445;28;20070;-44
2022/10/27 07:20:37;;;;;;;32.72;19.77;;;;;;;;;;5039534;28;20020;-47
2022/10/27 07:23:03;;;;;;;29.48;18.30;;;;;;;;;;5033259;28;20037;-45
2022/10/27 07:25:29;;;;;;;30.45;20.33;;;;;;;;;;5035677;28;20033;-45
2022/10/27 07:27:55;;;;;;;32.60;20.02;;;;;;;;;;5039374;28;20114;-44
2022/10/27 07:30:21;;;;;;;30.83;18.38;;;;;;;;;;5050996;28;20021;-46
2022/10/27 07:32:47;;;;;;;34.08;19.73;;;;;;;;;;5041772;28;20040;-44
2022/10/27 07:35:12;;;;;;;32.83;20.73;;;;;;;;;;5038744;28;20029;-44
2022/10/27 07:37:41;;;;;;;31.38;19.98;;;;;;;;;;5030322;28;20061;-45
2022/10/27 07:40:07;;;;;;;31.70;20.50;;;;;;;;;;5041458;28;20509;-45
2022/10/27 07:42:39;;;;;;;30.20;20.23;;;;;;;;;;5029699;28;20033;-46
2022/10/27 07:45:05;;;;;;;32.85;21.67;;;;;;;;;;5039235;28;20041;-44
2022/10/27 07:47:31;;;;;;;34.33;20.90;;;;;;;;;;5039451;28;20060;-45
2022/10/27 07:49:57;;;;;;;26.95;17.63;;;;;;;;;;5037844;28;20033;-44
2022/10/27 07:52:22;;;;;;;27.98;19.15;;;;;;;;;;5036200;28;20025;-45
2022/10/27 07:54:47;;;;;;;25.65;17.13;;;;;;;;;;5041778;28;20017;-45
2022/10/27 07:57:13;;;;;;;27.23;19.02;;;;;;;;;;5040785;28;20051;-43
2022/10/27 07:59:38;;;;;;;30.02;20.17;;;;;;;;;;5034428;28;20017;-42
2022/10/27 08:02:03;;;;;;;28.77;18.52;;;;;;;;;;5041310;28;20029;-44
2022/10/27 08:04:28;;;;;;;31.15;20.23;;;;;;;;;;5036468;28;20026;-45
2022/10/27 08:06:54;;;;;;;31.98;19.70;;;;;;;;;;5036164;28;20028;-45
2022/10/27 08:09:20;;;;;;;28.50;17.60;;;;;;;;;;5038066;28;20029;-46
2022/10/27 08:11:45;;;;;;;28.88;19.17;;;;;;;;;;5033791;28;20112;-46
2022/10/27 08:14:11;;;;;;;30.00;18.83;;;;;;;;;;5031576;28;20037;-45
2022/10/27 08:16:36;;;;;;;24.95;16.77;;;;;;;;;;5034154;28;20017;-46
2022/10/27 08:19:01;;;;;;;30.27;19.50;;;;;;;;;;5032316;28;20158;-46
2022/10/27 08:21:27;;;;;;;30.98;18.35;;;;;;;;;;5032531;28;20029;-44
2022/10/27 08:23:52;;;;;;;31.05;17.85;;;;;;;;;;5032871;28;20036;-44
2022/10/27 08:26:17;;;;;;;27.27;18.23;;;;;;;;;;5040836;28;20049;-44
2022/10/27 08:28:43;;;;;;;28.85;18.58;;;;;;;;;;5036199;28;20033;-46
2022/10/27 08:31:08;;;;;;;31.42;19.48;;;;;;;;;;5037014;28;20068;-44
2022/10/27 08:33:33;;;;;;;26.73;18.05;;;;;;;;;;5037945;28;20086;-44
2022/10/27 08:35:59;;;;;;;26.23;17.73;;;;;;;;;;5047286;28;20033;-46
2022/10/27 08:38:25;;;;;;;28.95;18.90;;;;;;;;;;5044365;28;20040;-44
2022/10/27 08:40:56;;;;;;;27.45;17.70;;;;;;;;;;5035275;28;20033;-45
2022/10/27 08:43:30;;;;;;;32.67;19.75;;;;;;;;;;5043696;28;20158;-45
2022/10/27 08:46:05;;;;;;;27.30;18.40;;;;;;;;;;5042293;28;20131;-44
2022/10/27 08:48:32;;;;;;;30.10;18.88;;;;;;;;;;5034968;28;20024;-44
2022/10/27 08:50:57;;;;;;;29.58;18.20;;;;;;;;;;5033192;28;20033;-44
2022/10/27 08:53:26;;;;;;;30.17;19.60;;;;;;;;;;5036463;28;20095;-44
2022/10/27 08:55:54;;;;;;;28.98;17.85;;;;;;;;;;5042607;28;20021;-44
2022/10/27 08:58:32;;;;;;;24.70;15.43;;;;;;;;;;5040083;28;20341;-44
2022/10/27 09:01:00;;;;;;;32.63;20.23;;;;;;;;;;5046710;28;20035;-45
2022/10/27 09:03:28;;;;;;;32.38;20.15;;;;;;;;;;5033024;28;20049;-44
2022/10/27 09:05:56;;;;;;;30.23;19.20;;;;;;;;;;5042973;28;20090;-44
2022/10/27 09:08:30;;;;;;;28.73;19.45;;;;;;;;;;5035146;28;20063;-43
2022/10/27 09:11:03;;;;;;;29.63;18.88;;;;;;;;;;5039161;28;20025;-46
2022/10/27 09:13:41;;;;;;;31.05;18.45;;;;;;;;;;5036220;28;20447;-45
2022/10/27 09:16:07;;;;;;;26.65;17.85;;;;;;;;;;5034550;28;20025;-45
2022/10/27 09:18:36;;;;;;;28.75;18.58;;;;;;;;;;5035600;28;20120;-43
2022/10/27 09:21:04;;;;;;;29.08;16.67;;;;;;;;;;5037493;28;20033;-44
2022/10/27 09:23:36;;;;;;;29.02;19.23;;;;;;;;;;5036930;28;20484;-44
2022/10/27 09:26:02;;;;;;;27.15;18.35;;;;;;;;;;5039019;28;20044;-44
2022/10/27 09:28:27;;;;;;;25.13;17.35;;;;;;;;;;5040018;28;20025;-44
2022/10/27 09:30:53;;;;;;;25.17;17.33;;;;;;;;;;5041769;28;20024;-44
2022/10/27 09:33:20;;;;;;;25.70;17.50;;;;;;;;;;5039865;28;20037;-44
2022/10/27 09:35:45;;;;;;;26.55;18.20;;;;;;;;;;5039474;28;20356;-46
2022/10/27 09:38:12;;;;;;;24.50;17.17;;;;;;;;;;5038964;28;20032;-44
2022/10/27 09:40:38;;;;;;;26.80;17.45;;;;;;;;;;5037894;28;20028;-44
2022/10/27 09:43:03;;;;;;;24.95;16.35;;;;;;;;;;5042052;28;20026;-44
2022/10/27 09:45:28;;;;;;;23.50;16.42;;;;;;;;;;5036742;28;20029;-46
2022/10/27 09:48:16;;;;;;;28.70;19.13;;;;;;;;;;5035304;28;20049;-44
2022/10/27 09:50:47;;;;;;;32.50;20.98;;;;;;;;;;5038782;28;20380;-44
2022/10/27 09:53:35;;;;;;;31.60;20.27;;;;;;;;;;5035823;28;20025;-44
2022/10/27 09:56:01;;;;;;;28.02;17.92;;;;;;;;;;5038794;28;20065;-44
2022/10/27 09:58:26;;;;;;;25.30;17.55;;;;;;;;;;5041388;28;20048;-46
2022/10/27 10:00:59;;;;;;;27.67;18.75;;;;;;;;;;5046783;28;20025;-43
2022/10/27 10:03:24;;;;;;;26.83;17.30;;;;;;;;;;5036918;28;20483;-44
2022/10/27 10:05:59;;;;;;;30.77;20.65;;;;;;;;;;5034196;28;20033;-43
2022/10/27 10:08:26;;;;;;;27.42;18.45;;;;;;;;;;5034348;28;20029;-46
2022/10/27 10:10:52;;;;;;;29.45;19.77;;;;;;;;;;5037610;28;20471;-44
2022/10/27 10:13:19;;;;;;;30.27;20.98;;;;;;;;;;5034919;28;20361;-44
2022/10/27 10:15:45;;;;;;;30.83;19.83;;;;;;;;;;5045446;28;20179;-44
2022/10/27 10:18:24;;;;;;;34.13;21.42;;;;;;;;;;5053847;28;20029;-41
2022/10/27 10:21:10;;;;;;;32.50;22.08;;;;;;;;;;5053184;28;20112;-45
2022/10/27 10:23:46;;;;;;;29.40;20.08;;;;;;;;;;5047145;28;20104;-44
2022/10/27 10:26:17;;;;;;;27.38;18.38;;;;;;;;;;5035283;28;20033;-43
2022/10/27 10:28:43;;;;;;;22.80;16.80;;;;;;;;;;5044883;28;20048;-43
2022/10/27 10:31:10;;;;;;;30.33;19.60;;;;;;;;;;5049911;28;20040;-46
2022/10/27 10:33:37;;;;;;;29.52;19.08;;;;;;;;;;5048997;28;20013;-45
2022/10/27 10:36:21;;;;;;;28.70;19.55;;;;;;;;;;5042803;28;20029;-44
2022/10/27 10:38:50;;;;;;;33.30;18.92;;;;;;;;;;5033065;28;20021;-45
2022/10/27 10:41:17;;;;;;;28.13;19.08;;;;;;;;;;5032992;28;20029;-44
2022/10/27 10:43:42;;;;;;;29.27;20.27;;;;;;;;;;5036289;28;20424;-44
2022/10/27 10:46:21;;;;;;;26.08;17.67;;;;;;;;;;5046809;28;20087;-44
2022/10/27 10:48:49;;;;;;;30.20;20.17;;;;;;;;;;5036890;28;20082;-44
2022/10/27 10:51:29;;;;;;;32.65;20.65;;;;;;;;;;5033479;28;20250;-43
2022/10/27 10:54:06;;;;;;;28.65;18.02;;;;;;;;;;5033068;28;20060;-43
2022/10/27 10:56:33;;;;;;;29.00;19.45;;;;;;;;;;5034417;28;20075;-43
2022/10/27 10:59:12;;;;;;;32.45;20.33;;;;;;;;;;5036734;28;20107;-44
2022/10/27 11:01:39;;;;;;;28.92;19.77;;;;;;;;;;5035557;28;20021;-43
2022/10/27 11:04:05;;;;;;;31.70;21.85;;;;;;;;;;5034000;28;20100;-44
2022/10/27 11:06:31;;;;;;;34.50;22.33;;;;;;;;;;5040527;28;20119;-44
2022/10/27 11:09:01;;;;;;;32.03;20.10;;;;;;;;;;5043575;28;20384;-44
2022/10/27 11:11:30;;;;;;;37.78;22.77;;;;;;;;;;5032719;28;20033;-45
2022/10/27 11:14:06;;;;;;;33.40;20.23;;;;;;;;;;5047873;28;20021;-44
2022/10/27 11:16:32;;;;;;;30.20;19.63;;;;;;;;;;5043089;28;20534;-44
2022/10/27 11:18:59;;;;;;;34.33;22.70;;;;;;;;;;5048223;28;20029;-46
2022/10/27 11:21:24;;;;;;;40.03;22.48;;;;;;;;;;5036290;28;20016;-45
2022/10/27 11:23:50;;;;;;;34.95;21.77;;;;;;;;;;5045810;28;20092;-45
2022/10/27 11:26:20;;;;;;;43.72;24.52;;;;;;;;;;5042313;28;20044;-44
2022/10/27 11:29:00;;;;;;;38.58;24.45;;;;;;;;;;5042867;28;20416;-45
2022/10/27 11:31:32;;;;;;;36.47;23.40;;;;;;;;;;5036142;28;20036;-45
2022/10/27 11:34:01;;;;;;;40.78;24.58;;;;;;;;;;5031145;28;20033;-45
2022/10/27 11:36:29;;;;;;;38.95;22.70;;;;;;;;;;5038110;28;20032;-47
2022/10/27 11:39:05;;;;;;;42.13;24.10;;;;;;;;;;5042852;28;20025;-45
2022/10/27 11:41:46;;;;;;;40.65;24.27;;;;;;;;;;5037549;28;20077;-45
2022/10/27 11:44:19;;;;;;;44.15;25.05;;;;;;;;;;5035859;28;20029;-45
2022/10/27 11:47:07;;;;;;;42.00;24.00;;;;;;;;;;5034434;28;20504;-45
2022/10/27 11:49:32;;;;;;;39.17;24.02;;;;;;;;;;5031308;28;20095;-45
2022/10/27 11:52:17;;;;;;;41.93;24.10;;;;;;;;;;5028836;28;20064;-45
2022/10/27 11:54:42;;;;;;;41.95;24.52;;;;;;;;;;5041211;28;20665;-44
2022/10/27 11:57:16;;;;;;;38.83;23.40;;;;;;;;;;5036735;28;20021;-45
2022/10/27 11:59:48;;;;;;;45.97;24.17;;;;;;;;;;5029207;28;20029;-47
2022/10/27 12:02:14;;;;;;;44.75;24.45;;;;;;;;;;5031299;28;20025;-45
2022/10/27 12:04:51;;;;;;;39.53;24.10;;;;;;;;;;5040044;28;20032;-45
2022/10/27 12:07:31;;;;;;;39.55;22.60;;;;;;;;;;5036536;28;20029;-44
2022/10/27 12:10:17;;;;;;;41.05;24.70;;;;;;;;;;5033143;28;20112;-45
2022/10/27 12:12:48;;;;;;;38.85;22.27;;;;;;;;;;5030301;28;20206;-45
2022/10/27 12:15:23;;;;;;;45.10;23.95;;;;;;;;;;5037100;28;20388;-45
2022/10/27 12:17:54;;;;;;;39.63;23.23;;;;;;;;;;5039746;28;20496;-46
2022/10/27 12:20:42;;;;;;;37.25;22.50;;;;;;;;;;5036654;28;20033;-46
2022/10/27 12:23:13;;;;;;;40.45;23.83;;;;;;;;;;5034367;28;20083;-45
2022/10/27 12:25:58;;;;;;;38.88;22.77;;;;;;;;;;5034091;28;20053;-45
2022/10/27 12:28:24;;;;;;;41.25;24.63;;;;;;;;;;5034092;28;20037;-45
2022/10/27 12:30:50;;;;;;;38.33;23.45;;;;;;;;;;5039344;28;20029;-45
2022/10/27 12:33:36;;;;;;;37.47;22.02;;;;;;;;;;5034512;28;20179;-45
2022/10/27 12:36:01;;;;;;;38.55;22.73;;;;;;;;;;5040702;28;20465;-45
2022/10/27 12:38:34;;;;;;;51.00;24.42;;;;;;;;;;5036404;28;20073;-44
2022/10/27 12:41:03;;;;;;;41.30;23.40;;;;;;;;;;5032126;28;20929;-45
2022/10/27 12:43:51;;;;;;;38.42;22.45;;;;;;;;;;5030736;28;20130;-47
2022/10/27 12:46:20;;;;;;;40.45;24.13;;;;;;;;;;5036473;28;20053;-44
2022/10/27 12:48:48;;;;;;;41.17;21.83;;;;;;;;;;5047413;28;20058;-45
2022/10/27 12:51:16;;;;;;;42.43;22.80;;;;;;;;;;5045563;28;20033;-45
2022/10/27 12:53:47;;;;;;;44.30;24.70;;;;;;;;;;5027778;28;20270;-45
2022/10/27 12:56:31;;;;;;;42.22;23.45;;;;;;;;;;5036145;28;20022;-45
2022/10/27 12:59:07;;;;;;;36.03;22.00;;;;;;;;;;5034346;28;20062;-45
2022/10/27 13:01:39;;;;;;;40.55;23.25;;;;;;;;;;5036457;28;20515;-46
2022/10/27 13:04:25;;;;;;;41.50;25.10;;;;;;;;;;5039893;28;20029;-45
2022/10/27 13:07:09;;;;;;;41.28;22.50;;;;;;;;;;5035152;28;20092;-46
2022/10/27 13:09:51;;;;;;;41.75;23.08;;;;;;;;;;5039284;28;20056;-44
2022/10/27 13:12:36;;;;;;;43.85;24.15;;;;;;;;;;5039829;28;20032;-44
2022/10/27 13:15:08;;;;;;;38.47;23.75;;;;;;;;;;5034689;28;20111;-44
2022/10/27 13:17:48;;;;;;;42.53;22.80;;;;;;;;;;5033459;28;20503;-44
2022/10/27 13:20:19;;;;;;;39.47;22.90;;;;;;;;;;5043453;28;20032;-44
2022/10/27 13:22:51;;;;;;;43.00;23.70;;;;;;;;;;5033967;28;20100;-46
2022/10/27 13:25:29;;;;;;;43.05;23.63;;;;;;;;;;5038836;28;20052;-44
2022/10/27 13:28:07;;;;;;;38.17;23.25;;;;;;;;;;5035908;28;20142;-46
2022/10/27 13:30:35;;;;;;;40.53;23.00;;;;;;;;;;5038993;28;20039;-45
2022/10/27 13:33:00;;;;;;;39.42;22.35;;;;;;;;;;5047010;28;20029;-44
2022/10/27 13:35:27;;;;;;;42.35;22.73;;;;;;;;;;5041638;28;20033;-44
2022/10/27 13:37:58;;;;;;;39.38;22.45;;;;;;;;;;5043172;28;20128;-44
2022/10/27 13:40:26;;;;;;;41.75;23.88;;;;;;;;;;5038780;28;20098;-45
2022/10/27 13:42:52;;;;;;;43.55;23.23;;;;;;;;;;5032808;28;20071;-46
2022/10/27 13:45:33;;;;;;;42.97;22.42;;;;;;;;;;5036445;28;20392;-44
2022/10/27 13:48:10;;;;;;;39.38;22.50;;;;;;;;;;5048206;28;20056;-44
2022/10/27 13:50:37;;;;;;;43.10;23.35;;;;;;;;;;5034187;28;20033;-46
2022/10/27 13:53:15;;;;;;;37.60;22.50;;;;;;;;;;5040601;28;20029;-45
2022/10/27 13:55:40;;;;;;;41.78;23.33;;;;;;;;;;5038094;28;20036;-45
2022/10/27 13:58:11;;;;;;;43.95;22.42;;;;;;;;;;5036265;28;20025;-45
2022/10/27 14:00:43;;;;;;;40.15;21.67;;;;;;;;;;5038351;28;20021;-45
2022/10/27 14:03:11;;;;;;;45.47;24.90;;;;;;;;;;5035563;28;20021;-45
2022/10/27 14:05:42;;;;;;;44.75;25.02;;;;;;;;;;5033816;28;20040;-44
2022/10/27 14:08:26;;;;;;;46.22;24.42;;;;;;;;;;5038198;28;20068;-46
2022/10/27 14:10:53;;;;;;;51.13;26.52;;;;;;;;;;5041675;28;20024;-45
2022/10/27 14:13:38;;;;;;;48.50;27.67;;;;;;;;;;5042838;28;20025;-45
2022/10/27 14:16:04;;;;;;;51.10;25.42;;;;;;;;;;5037755;28;20025;-45
2022/10/27 14:18:30;;;;;;;36.97;20.02;;;;;;;;;;5033912;28;20041;-46
2022/10/27 14:21:07;;;;;;;47.75;24.52;;;;;;;;;;5053184;28;20032;-44
2022/10/27 14:23:33;;;;;;;45.50;23.48;;;;;;;;;;5036983;28;20025;-43
2022/10/27 14:26:18;;;;;;;45.75;23.23;;;;;;;;;;5038925;28;20075;-44
2022/10/27 14:28:45;;;;;;;45.60;23.10;;;;;;;;;;5028350;28;20056;-42